Time;durP1;ratioP1;P1;durP2;ratioP2;P2;SDS_P1;SDS_P2;PMS_P1;PMS_P2;Temp;Humidity;BMP_temperature;BMP_pressure;BME280_temperature;BME280_humidity;BME280_pressure;Samples;Min_cycle;Max_cycle;Signal;HPM_P1;HPM_P2
2022/08/28 00:02:01;;;;;;;19.10;6.95;;;;;;;;;;5016574;28;20023;-45
2022/08/28 00:04:27;;;;;;;11.40;6.05;;;;;;;;;;5033724;28;20029;-44
2022/08/28 00:06:52;;;;;;;14.50;6.18;;;;;;;;;;5019401;28;20393;-45
2022/08/28 00:09:17;;;;;;;16.90;6.97;;;;;;;;;;5053386;28;20384;-42
2022/08/28 00:11:43;;;;;;;11.80;6.50;;;;;;;;;;5053469;28;20347;-46
2022/08/28 00:14:09;;;;;;;18.63;6.60;;;;;;;;;;5054111;28;20043;-44
2022/08/28 00:16:34;;;;;;;17.92;8.02;;;;;;;;;;5052585;28;20289;-44
2022/08/28 00:19:00;;;;;;;13.13;6.22;;;;;;;;;;5052086;28;20052;-44
2022/08/28 00:21:26;;;;;;;14.50;6.53;;;;;;;;;;5053222;28;20028;-45
2022/08/28 00:23:52;;;;;;;14.88;6.60;;;;;;;;;;5053554;28;20021;-44
2022/08/28 00:29:04;;;;;;;15.25;6.68;;;;;;;;;;5053041;28;20392;-45
2022/08/28 00:31:30;;;;;;;17.48;6.40;;;;;;;;;;5053199;28;20033;-44
2022/08/28 00:33:55;;;;;;;17.48;5.65;;;;;;;;;;5051872;28;20024;-45
2022/08/28 00:36:20;;;;;;;23.50;6.20;;;;;;;;;;5053191;28;20028;-45
2022/08/28 00:38:46;;;;;;;17.80;6.53;;;;;;;;;;5050893;28;20250;-45
2022/08/28 00:41:11;;;;;;;16.15;6.40;;;;;;;;;;5051956;28;20381;-44
2022/08/28 00:43:41;;;;;;;12.32;5.78;;;;;;;;;;5053193;28;20024;-44
2022/08/28 00:46:09;;;;;;;13.02;5.50;;;;;;;;;;5051733;28;20017;-44
2022/08/28 00:48:35;;;;;;;12.38;5.65;;;;;;;;;;5051727;28;20452;-44
2022/08/28 00:53:45;;;;;;;26.25;6.43;;;;;;;;;;5072870;28;20023;-47
2022/08/28 00:56:11;;;;;;;15.75;6.20;;;;;;;;;;5073114;28;20020;-45
2022/08/28 00:58:37;;;;;;;16.70;5.95;;;;;;;;;;5072807;28;20494;-45
2022/08/28 01:01:03;;;;;;;16.23;5.70;;;;;;;;;;5073191;28;20088;-43
2022/08/28 01:03:28;;;;;;;16.02;6.40;;;;;;;;;;5072354;28;20099;-45
2022/08/28 01:05:54;;;;;;;16.83;6.82;;;;;;;;;;5072382;28;20066;-45
2022/08/28 01:08:19;;;;;;;10.10;7.00;;;;;;;;;;5056948;28;20045;-44
2022/08/28 01:10:46;;;;;;;12.93;5.85;;;;;;;;;;5034960;28;20032;-44
2022/08/28 01:13:12;;;;;;;21.75;5.85;;;;;;;;;;5035104;28;20025;-44
2022/08/28 01:15:37;;;;;;;11.40;5.38;;;;;;;;;;5052380;28;20457;-45
2022/08/28 01:18:07;;;;;;;17.30;6.18;;;;;;;;;;5034400;28;20388;-45
2022/08/28 01:20:34;;;;;;;11.10;5.15;;;;;;;;;;5052150;28;20431;-45
2022/08/28 01:23:04;;;;;;;13.15;6.10;;;;;;;;;;5052050;28;20484;-45
2022/08/28 01:25:30;;;;;;;18.30;5.45;;;;;;;;;;5052690;28;20099;-44
2022/08/28 01:27:56;;;;;;;14.05;5.53;;;;;;;;;;5034058;28;20472;-45
2022/08/28 01:30:23;;;;;;;11.15;5.65;;;;;;;;;;5052177;28;20047;-44
2022/08/28 01:32:50;;;;;;;15.60;5.03;;;;;;;;;;5051944;28;20100;-45
2022/08/28 01:35:17;;;;;;;13.93;5.57;;;;;;;;;;5033480;28;20025;-46
2022/08/28 01:37:43;;;;;;;13.38;5.50;;;;;;;;;;5052012;28;20029;-44
2022/08/28 01:40:09;;;;;;;12.80;5.55;;;;;;;;;;5052202;28;20017;-43
2022/08/28 01:42:38;;;;;;;11.15;4.78;;;;;;;;;;5052191;28;20048;-45
2022/08/28 01:45:04;;;;;;;6.40;4.70;;;;;;;;;;5052353;28;20024;-47
2022/08/28 01:47:29;;;;;;;13.07;5.38;;;;;;;;;;5051784;28;20024;-44
2022/08/28 01:49:54;;;;;;;14.05;5.43;;;;;;;;;;5033861;28;20135;-46
2022/08/28 01:52:19;;;;;;;14.03;5.13;;;;;;;;;;5036446;28;20021;-44
2022/08/28 01:54:45;;;;;;;10.27;5.30;;;;;;;;;;5014094;28;20259;-46
2022/08/28 01:57:10;;;;;;;16.83;5.50;;;;;;;;;;5031867;28;20021;-44
2022/08/28 01:59:35;;;;;;;12.80;4.63;;;;;;;;;;5032373;28;20726;-45
2022/08/28 02:02:00;;;;;;;9.47;5.20;;;;;;;;;;5031373;28;20247;-45
2022/08/28 02:04:26;;;;;;;10.02;5.00;;;;;;;;;;5013861;28;20326;-44
2022/08/28 02:06:51;;;;;;;14.88;5.43;;;;;;;;;;5031395;28;20041;-43
2022/08/28 02:09:17;;;;;;;16.35;5.47;;;;;;;;;;5031102;28;20021;-45
2022/08/28 02:11:43;;;;;;;8.73;4.85;;;;;;;;;;5031537;28;20033;-45
2022/08/28 02:14:09;;;;;;;9.88;5.43;;;;;;;;;;5031286;28;20028;-45
2022/08/28 02:16:34;;;;;;;8.63;5.15;;;;;;;;;;5013670;28;20014;-46
2022/08/28 02:19:00;;;;;;;14.50;6.82;;;;;;;;;;5013272;28;20466;-45
2022/08/28 02:21:25;;;;;;;9.85;5.20;;;;;;;;;;5031553;28;20117;-44
2022/08/28 02:23:50;;;;;;;11.85;4.95;;;;;;;;;;5031468;28;20017;-44
2022/08/28 02:26:16;;;;;;;13.07;4.63;;;;;;;;;;5031508;28;20460;-46
2022/08/28 02:28:42;;;;;;;16.00;5.20;;;;;;;;;;5031311;28;20017;-46
2022/08/28 02:31:08;;;;;;;11.27;4.93;;;;;;;;;;5013493;28;20080;-45
2022/08/28 02:33:34;;;;;;;10.40;4.75;;;;;;;;;;5030631;28;20025;-46
2022/08/28 02:36:00;;;;;;;6.05;4.05;;;;;;;;;;5031960;28;20393;-44
2022/08/28 02:38:25;;;;;;;6.57;4.75;;;;;;;;;;5013379;28;20045;-44
2022/08/28 02:40:51;;;;;;;8.10;5.10;;;;;;;;;;5030904;28;20025;-45
2022/08/28 02:43:16;;;;;;;9.32;4.55;;;;;;;;;;5013502;28;20358;-44
2022/08/28 02:45:42;;;;;;;16.70;5.35;;;;;;;;;;5013716;28;20377;-44
2022/08/28 02:48:07;;;;;;;9.17;4.77;;;;;;;;;;5031168;28;20025;-45
2022/08/28 02:50:32;;;;;;;13.68;4.63;;;;;;;;;;5031135;28;20641;-46
2022/08/28 02:52:58;;;;;;;7.50;4.60;;;;;;;;;;5033628;28;20020;-45
2022/08/28 02:55:24;;;;;;;11.60;4.78;;;;;;;;;;5051218;28;20033;-45
2022/08/28 02:57:50;;;;;;;13.40;5.07;;;;;;;;;;5050985;28;20090;-45
2022/08/28 03:00:18;;;;;;;15.50;5.43;;;;;;;;;;5051111;28;20032;-44
2022/08/28 03:02:45;;;;;;;12.60;6.15;;;;;;;;;;5054825;28;20029;-45
2022/08/28 03:05:11;;;;;;;9.90;4.50;;;;;;;;;;5036927;28;20082;-45
2022/08/28 03:07:36;;;;;;;10.75;5.35;;;;;;;;;;5055034;28;20052;-44
2022/08/28 03:10:02;;;;;;;12.10;4.93;;;;;;;;;;5037220;28;20037;-45
2022/08/28 03:12:27;;;;;;;13.93;4.95;;;;;;;;;;5055301;28;20238;-45
2022/08/28 03:14:53;;;;;;;13.93;4.82;;;;;;;;;;5054652;28;20025;-46
2022/08/28 03:17:19;;;;;;;10.10;4.70;;;;;;;;;;5054269;28;20457;-45
2022/08/28 03:19:44;;;;;;;9.07;4.75;;;;;;;;;;5036626;28;20061;-46
2022/08/28 03:22:10;;;;;;;10.13;5.05;;;;;;;;;;5054888;28;20426;-44
2022/08/28 03:24:36;;;;;;;14.18;5.30;;;;;;;;;;5054614;28;20025;-47
2022/08/28 03:27:02;;;;;;;15.98;6.40;;;;;;;;;;5054123;28;20021;-43
2022/08/28 03:29:27;;;;;;;10.48;5.78;;;;;;;;;;5054531;28;20481;-42
2022/08/28 03:31:52;;;;;;;13.90;4.80;;;;;;;;;;5054642;28;20399;-45
2022/08/28 03:34:18;;;;;;;15.50;5.53;;;;;;;;;;5053923;28;20246;-42
2022/08/28 03:36:43;;;;;;;11.13;5.45;;;;;;;;;;5054695;28;20702;-42
2022/08/28 03:39:09;;;;;;;10.95;5.55;;;;;;;;;;5054242;28;20020;-42
2022/08/28 03:41:34;;;;;;;10.52;5.93;;;;;;;;;;5054766;28;20083;-43
2022/08/28 03:44:00;;;;;;;13.50;6.00;;;;;;;;;;5036480;28;20518;-42
2022/08/28 03:46:26;;;;;;;18.60;5.88;;;;;;;;;;5054050;28;20017;-43
2022/08/28 03:48:52;;;;;;;15.00;6.78;;;;;;;;;;5053878;28;20017;-42
2022/08/28 03:51:22;;;;;;;10.00;5.05;;;;;;;;;;5047994;28;20041;-43
2022/08/28 03:53:47;;;;;;;10.30;4.95;;;;;;;;;;5016388;28;20028;-43
2022/08/28 03:56:14;;;;;;;11.88;5.45;;;;;;;;;;5016106;28;20021;-42
2022/08/28 03:58:39;;;;;;;11.07;6.07;;;;;;;;;;5033844;28;20017;-42
2022/08/28 04:01:05;;;;;;;16.23;6.20;;;;;;;;;;5016083;28;20021;-44
2022/08/28 04:03:30;;;;;;;10.50;6.30;;;;;;;;;;5033900;28;20029;-42
2022/08/28 04:05:55;;;;;;;8.02;5.22;;;;;;;;;;5034570;28;20373;-42
2022/08/28 04:08:21;;;;;;;11.98;6.15;;;;;;;;;;5033955;28;20088;-44
2022/08/28 04:10:47;;;;;;;16.25;6.18;;;;;;;;;;5033845;28;20083;-43
2022/08/28 04:13:14;;;;;;;11.45;5.70;;;;;;;;;;5032528;28;20025;-43
2022/08/28 04:15:40;;;;;;;18.65;7.15;;;;;;;;;;5015899;28;20024;-42
2022/08/28 04:18:05;;;;;;;21.67;6.03;;;;;;;;;;5033558;28;20392;-43
2022/08/28 04:20:30;;;;;;;18.10;6.68;;;;;;;;;;5034174;28;20373;-41
2022/08/28 04:22:56;;;;;;;19.65;6.45;;;;;;;;;;5016209;28;20017;-42
2022/08/28 04:25:21;;;;;;;12.75;6.05;;;;;;;;;;5033761;28;20533;-43
2022/08/28 04:27:47;;;;;;;17.02;5.93;;;;;;;;;;5033439;28;20024;-42
2022/08/28 04:30:12;;;;;;;12.90;6.00;;;;;;;;;;5033437;28;20025;-42
2022/08/28 04:32:38;;;;;;;19.25;6.88;;;;;;;;;;5033056;28;20022;-42
2022/08/28 04:35:05;;;;;;;17.55;6.88;;;;;;;;;;5033427;28;20033;-43
2022/08/28 04:37:30;;;;;;;13.48;6.93;;;;;;;;;;5033765;28;20032;-44
2022/08/28 04:39:55;;;;;;;13.02;5.97;;;;;;;;;;5015775;28;20112;-43
2022/08/28 04:42:21;;;;;;;9.53;5.67;;;;;;;;;;5033467;28;20025;-43
2022/08/28 04:44:46;;;;;;;17.88;6.75;;;;;;;;;;5032875;28;20254;-44
2022/08/28 04:47:11;;;;;;;9.50;5.95;;;;;;;;;;5014622;28;20013;-44
2022/08/28 04:49:37;;;;;;;12.43;5.93;;;;;;;;;;5033316;28;20021;-43
2022/08/28 04:52:03;;;;;;;14.35;6.25;;;;;;;;;;5027403;28;20029;-43
2022/08/28 04:54:28;;;;;;;11.38;5.68;;;;;;;;;;5053223;28;20025;-43
2022/08/28 04:56:54;;;;;;;8.98;5.53;;;;;;;;;;5034703;28;20397;-43
2022/08/28 04:59:19;;;;;;;15.23;5.32;;;;;;;;;;5034621;28;20025;-42
2022/08/28 05:01:44;;;;;;;14.85;6.90;;;;;;;;;;5034965;28;20164;-44
2022/08/28 05:04:10;;;;;;;9.10;5.32;;;;;;;;;;5052353;28;20021;-43
2022/08/28 05:06:42;;;;;;;14.25;5.97;;;;;;;;;;5034190;28;20025;-43
2022/08/28 05:09:08;;;;;;;7.05;4.82;;;;;;;;;;5034623;28;20013;-43
2022/08/28 05:11:33;;;;;;;16.38;5.70;;;;;;;;;;5052561;28;20055;-45
2022/08/28 05:13:58;;;;;;;14.30;5.85;;;;;;;;;;5034283;28;20078;-44
2022/08/28 05:16:23;;;;;;;10.07;4.78;;;;;;;;;;5052337;28;20079;-45
2022/08/28 05:18:49;;;;;;;9.85;5.03;;;;;;;;;;5034175;28;20021;-43
2022/08/28 05:21:19;;;;;;;13.60;4.97;;;;;;;;;;5051976;28;20094;-44
2022/08/28 05:23:44;;;;;;;7.20;4.40;;;;;;;;;;5034133;28;20055;-42
2022/08/28 05:26:14;;;;;;;8.30;4.78;;;;;;;;;;5051797;28;20044;-45
2022/08/28 05:28:39;;;;;;;12.02;4.70;;;;;;;;;;5034195;28;20534;-45
2022/08/28 05:31:12;;;;;;;6.47;4.80;;;;;;;;;;5051974;28;20037;-44
2022/08/28 05:33:37;;;;;;;9.48;4.53;;;;;;;;;;5052040;28;20254;-46
2022/08/28 05:36:04;;;;;;;11.27;4.60;;;;;;;;;;5052431;28;20039;-45
2022/08/28 05:38:29;;;;;;;11.13;4.60;;;;;;;;;;5052563;28;20056;-44
2022/08/28 05:40:54;;;;;;;10.55;4.68;;;;;;;;;;5051543;28;20480;-44
2022/08/28 05:43:20;;;;;;;11.70;4.47;;;;;;;;;;5052403;28;20021;-45
2022/08/28 05:45:56;;;;;;;7.10;4.40;;;;;;;;;;5033819;28;20863;-47
2022/08/28 05:48:21;;;;;;;9.50;4.10;;;;;;;;;;5034093;28;20734;-41
2022/08/28 05:50:47;;;;;;;7.20;4.33;;;;;;;;;;5049171;28;20039;-43
2022/08/28 05:53:12;;;;;;;10.32;3.90;;;;;;;;;;5014193;28;20040;-42
2022/08/28 05:55:40;;;;;;;13.40;3.30;;;;;;;;;;5032227;28;20048;-42
2022/08/28 05:58:27;;;;;;;13.47;5.37;;;;;;;;;;5031620;28;20033;-43
2022/08/28 06:00:50;;;;;;;7.47;3.95;;;;;;;;;;5031214;28;20029;-43
2022/08/28 06:03:16;;;;;;;10.67;4.20;;;;;;;;;;5031773;28;20022;-45
2022/08/28 06:05:41;;;;;;;9.00;3.73;;;;;;;;;;5031653;28;20318;-43
2022/08/28 06:08:07;;;;;;;8.60;3.60;;;;;;;;;;5031589;28;20275;-41
2022/08/28 06:10:32;;;;;;;10.85;3.75;;;;;;;;;;5031397;28;20044;-44
2022/08/28 06:12:57;;;;;;;5.40;3.60;;;;;;;;;;5013924;28;20021;-44
2022/08/28 06:15:22;;;;;;;8.67;3.40;;;;;;;;;;5031604;28;20723;-43
2022/08/28 06:17:48;;;;;;;9.87;3.83;;;;;;;;;;5014037;28;20313;-42
2022/08/28 06:20:13;;;;;;;7.33;3.40;;;;;;;;;;5031322;28;20235;-42
2022/08/28 06:22:38;;;;;;;11.63;3.35;;;;;;;;;;5013867;28;20764;-44
2022/08/28 06:25:06;;;;;;;9.90;2.90;;;;;;;;;;5031204;28;20025;-42
2022/08/28 06:27:33;;;;;;;9.00;3.60;;;;;;;;;;5031229;28;20032;-44
2022/08/28 06:29:58;;;;;;;7.97;3.17;;;;;;;;;;5013229;28;20028;-43
2022/08/28 06:32:24;;;;;;;6.68;3.42;;;;;;;;;;5031406;28;20392;-43
2022/08/28 06:34:49;;;;;;;5.25;3.78;;;;;;;;;;5030847;28;20018;-41
2022/08/28 06:37:14;;;;;;;6.53;2.80;;;;;;;;;;5013349;28;20026;-44
2022/08/28 06:39:40;;;;;;;7.30;3.50;;;;;;;;;;5013227;28;20013;-44
2022/08/28 06:42:05;;;;;;;6.95;3.42;;;;;;;;;;5031532;28;20270;-38
2022/08/28 06:44:31;;;;;;;11.30;2.92;;;;;;;;;;5013239;28;20116;-42
2022/08/28 06:46:56;;;;;;;8.02;3.67;;;;;;;;;;5031504;28;20018;-42
2022/08/28 06:49:22;;;;;;;10.45;3.60;;;;;;;;;;5031445;28;20023;-41
2022/08/28 06:51:47;;;;;;;10.52;3.30;;;;;;;;;;5023748;28;20055;-43
2022/08/28 06:54:14;;;;;;;11.75;3.10;;;;;;;;;;5051258;28;20381;-42
2022/08/28 06:56:40;;;;;;;9.85;3.58;;;;;;;;;;5032903;28;20426;-44
2022/08/28 06:59:05;;;;;;;6.17;3.13;;;;;;;;;;5051012;28;20025;-41
2022/08/28 07:01:32;;;;;;;7.55;2.88;;;;;;;;;;5032345;28;20246;-42
2022/08/28 07:04:00;;;;;;;6.55;3.30;;;;;;;;;;5050878;28;20056;-44
2022/08/28 07:06:25;;;;;;;5.82;3.17;;;;;;;;;;5050817;28;20379;-41
2022/08/28 07:08:50;;;;;;;7.13;3.13;;;;;;;;;;5068702;28;20053;-41
2022/08/28 07:11:17;;;;;;;6.60;3.80;;;;;;;;;;5070690;28;20044;-42
2022/08/28 07:13:44;;;;;;;7.07;3.08;;;;;;;;;;5069211;28;20012;-45
2022/08/28 07:16:10;;;;;;;4.32;2.72;;;;;;;;;;5071139;28;20029;-43
2022/08/28 07:18:35;;;;;;;7.65;3.10;;;;;;;;;;5071202;28;20109;-44
2022/08/28 07:21:01;;;;;;;11.20;3.22;;;;;;;;;;5069758;28;20013;-42
2022/08/28 07:23:27;;;;;;;9.77;3.17;;;;;;;;;;5069264;28;20089;-40
2022/08/28 07:25:53;;;;;;;12.65;3.53;;;;;;;;;;5069297;28;20052;-43
2022/08/28 07:28:18;;;;;;;10.40;3.63;;;;;;;;;;5070558;28;20044;-44
2022/08/28 07:30:43;;;;;;;6.82;3.38;;;;;;;;;;5070715;28;20378;-44
2022/08/28 07:33:09;;;;;;;4.53;3.40;;;;;;;;;;5070505;28;20311;-47
2022/08/28 07:35:34;;;;;;;10.27;4.05;;;;;;;;;;5070827;28;20021;-43
2022/08/28 07:38:00;;;;;;;8.52;3.33;;;;;;;;;;5069182;28;20384;-42
2022/08/28 07:40:25;;;;;;;13.37;3.07;;;;;;;;;;5070196;28;20467;-43
2022/08/28 07:45:34;;;;;;;8.50;3.97;;;;;;;;;;5070555;28;20074;-41
2022/08/28 07:48:02;;;;;;;9.63;3.30;;;;;;;;;;5071991;28;20425;-43
2022/08/28 07:50:28;;;;;;;10.07;3.57;;;;;;;;;;5074179;28;20028;-42
2022/08/28 07:52:53;;;;;;;7.93;3.73;;;;;;;;;;5054330;28;20060;-42
2022/08/28 07:55:18;;;;;;;10.93;3.37;;;;;;;;;;5053768;28;20721;-43
2022/08/28 07:57:43;;;;;;;8.63;3.57;;;;;;;;;;5053823;28;20258;-43
2022/08/28 08:00:09;;;;;;;8.27;3.63;;;;;;;;;;5054625;28;20431;-42
2022/08/28 08:02:35;;;;;;;8.80;4.13;;;;;;;;;;5052928;28;20025;-45
2022/08/28 08:05:00;;;;;;;7.40;3.63;;;;;;;;;;5053995;28;20029;-44
2022/08/28 08:07:25;;;;;;;5.70;3.27;;;;;;;;;;5045984;28;20061;-43
2022/08/28 08:09:51;;;;;;;9.82;3.33;;;;;;;;;;5033727;28;20461;-42
2022/08/28 08:12:16;;;;;;;10.10;3.40;;;;;;;;;;5034107;28;20072;-43
2022/08/28 08:14:42;;;;;;;6.93;3.60;;;;;;;;;;5015311;28;20013;-44
2022/08/28 08:17:09;;;;;;;9.18;4.00;;;;;;;;;;5033826;28;20022;-42
2022/08/28 08:19:34;;;;;;;11.95;3.08;;;;;;;;;;5016081;28;20472;-40
2022/08/28 08:22:00;;;;;;;10.32;3.10;;;;;;;;;;5033412;28;20028;-44
2022/08/28 08:24:27;;;;;;;15.88;3.88;;;;;;;;;;5033199;28;20033;-38
2022/08/28 08:26:53;;;;;;;6.25;3.30;;;;;;;;;;5033233;28;20025;-42
2022/08/28 08:29:19;;;;;;;11.35;2.95;;;;;;;;;;5033343;28;20048;-43
2022/08/28 08:31:44;;;;;;;9.98;3.95;;;;;;;;;;5033386;28;20030;-42
2022/08/28 08:34:09;;;;;;;8.65;3.17;;;;;;;;;;5033455;28;20049;-42
2022/08/28 08:36:36;;;;;;;6.93;3.00;;;;;;;;;;5033646;28;20024;-41
2022/08/28 08:39:02;;;;;;;5.93;3.10;;;;;;;;;;5015303;28;20091;-43
2022/08/28 08:41:31;;;;;;;9.82;3.70;;;;;;;;;;5014966;28;20022;-43
2022/08/28 08:43:59;;;;;;;8.73;3.30;;;;;;;;;;5015636;28;20032;-43
2022/08/28 08:46:33;;;;;;;8.82;3.50;;;;;;;;;;5033457;28;20025;-41
2022/08/28 08:49:04;;;;;;;5.82;3.70;;;;;;;;;;5015485;28;20488;-41
2022/08/28 08:51:50;;;;;;;6.65;3.30;;;;;;;;;;5040767;28;20032;-40
2022/08/28 08:54:18;;;;;;;4.95;2.47;;;;;;;;;;5052125;28;20032;-41
2022/08/28 08:56:43;;;;;;;;;;;;;;;;;;5053206;28;20368;-44
2022/08/28 08:59:14;;;;;;;6.67;3.70;;;;;;;;;;5052265;28;19945;-40
2022/08/28 09:01:43;;;;;;;12.23;3.42;;;;;;;;;;5053128;28;20037;-40
2022/08/28 09:04:27;;;;;;;12.82;3.80;;;;;;;;;;5052451;28;20362;-40
2022/08/28 09:06:59;;;;;;;9.32;3.63;;;;;;;;;;5052258;28;20136;-39
2022/08/28 09:09:32;;;;;;;8.98;3.35;;;;;;;;;;5052746;28;20021;-40
2022/08/28 09:12:02;;;;;;;10.27;3.60;;;;;;;;;;5051707;28;20048;-41
2022/08/28 09:14:36;;;;;;;4.53;2.90;;;;;;;;;;5034623;28;20124;-42
2022/08/28 09:17:03;;;;;;;13.57;3.88;;;;;;;;;;5034615;28;20025;-42
2022/08/28 09:19:28;;;;;;;10.18;3.35;;;;;;;;;;5052754;28;20059;-42
2022/08/28 09:21:54;;;;;;;7.17;3.20;;;;;;;;;;5052167;28;20048;-43
2022/08/28 09:24:24;;;;;;;15.23;3.80;;;;;;;;;;5052221;28;20020;-42
2022/08/28 09:26:52;;;;;;;12.73;3.45;;;;;;;;;;5052079;28;20246;-42
2022/08/28 09:29:22;;;;;;;9.90;3.63;;;;;;;;;;5034067;28;20013;-42
2022/08/28 09:31:47;;;;;;;10.57;3.60;;;;;;;;;;5033879;28;20041;-43
2022/08/28 09:34:27;;;;;;;5.22;3.00;;;;;;;;;;5034297;28;20035;-41
2022/08/28 09:36:53;;;;;;;7.95;3.03;;;;;;;;;;5034425;28;20053;-39
2022/08/28 09:39:26;;;;;;;8.00;3.33;;;;;;;;;;5052041;28;20029;-45
2022/08/28 09:44:41;;;;;;;;;;;;;;;;;;5051938;28;20539;-41
2022/08/28 09:47:06;;;;;;;5.23;3.40;;;;;;;;;;5033948;28;19905;-43
2022/08/28 09:49:32;;;;;;;12.23;3.43;;;;;;;;;;5033874;28;20017;-43
2022/08/28 09:52:00;;;;;;;8.73;3.80;;;;;;;;;;5021782;28;20064;-44
2022/08/28 09:54:28;;;;;;;10.48;3.33;;;;;;;;;;5032562;28;20309;-41
2022/08/28 09:56:54;;;;;;;9.65;3.25;;;;;;;;;;5031342;28;20269;-43
2022/08/28 09:59:21;;;;;;;8.95;3.40;;;;;;;;;;5032075;28;20048;-38
2022/08/28 10:01:58;;;;;;;5.88;3.38;;;;;;;;;;5032012;28;20022;-40
2022/08/28 10:04:32;;;;;;;8.65;3.67;;;;;;;;;;5013864;28;20044;-42
2022/08/28 10:07:07;;;;;;;7.93;3.00;;;;;;;;;;5018475;28;20057;-41
2022/08/28 10:09:44;;;;;;;4.72;3.05;;;;;;;;;;5049716;28;20051;-42
2022/08/28 10:12:13;;;;;;;8.93;3.42;;;;;;;;;;5049369;28;20087;-42
2022/08/28 10:14:56;;;;;;;10.07;3.67;;;;;;;;;;5051244;28;20037;-43
2022/08/28 10:17:28;;;;;;;9.98;3.65;;;;;;;;;;5049942;28;20499;-41
2022/08/28 10:20:12;;;;;;;8.50;3.60;;;;;;;;;;5050286;28;20028;-42
2022/08/28 10:22:37;;;;;;;9.68;3.28;;;;;;;;;;5049949;28;20387;-43
2022/08/28 10:25:14;;;;;;;4.70;2.80;;;;;;;;;;5050020;28;20025;-42
2022/08/28 10:27:50;;;;;;;11.50;3.45;;;;;;;;;;5051790;28;20664;-42
2022/08/28 10:30:19;;;;;;;10.48;3.70;;;;;;;;;;5050567;28;20036;-44
2022/08/28 10:33:04;;;;;;;13.93;3.45;;;;;;;;;;5051158;28;20162;-44
2022/08/28 10:35:38;;;;;;;10.05;3.45;;;;;;;;;;5051462;28;20100;-42
2022/08/28 10:38:12;;;;;;;10.70;3.60;;;;;;;;;;5050610;28;20028;-39
2022/08/28 10:40:40;;;;;;;8.27;3.08;;;;;;;;;;5050828;28;20036;-42
2022/08/28 10:43:42;;;;;;;14.77;3.97;;;;;;;;;;5050641;28;20111;-41
2022/08/28 10:46:17;;;;;;;12.50;4.05;;;;;;;;;;5008711;28;20033;-42
2022/08/28 10:48:45;;;;;;;12.63;3.65;;;;;;;;;;5057976;28;20033;-42
2022/08/28 10:51:27;;;;;;;14.55;4.07;;;;;;;;;;5056116;28;20024;-41
2022/08/28 10:53:59;;;;;;;10.35;3.58;;;;;;;;;;5069702;28;20024;-41
2022/08/28 10:56:29;;;;;;;6.85;3.33;;;;;;;;;;5071185;28;20017;-44
2022/08/28 10:58:57;;;;;;;14.07;3.60;;;;;;;;;;5070897;28;20027;-43
2022/08/28 11:01:30;;;;;;;7.95;3.50;;;;;;;;;;5071195;28;20440;-44
2022/08/28 11:03:57;;;;;;;13.95;3.40;;;;;;;;;;5071006;28;20021;-43
2022/08/28 11:06:29;;;;;;;12.90;3.90;;;;;;;;;;5069537;28;20502;-44
2022/08/28 11:08:58;;;;;;;7.45;3.22;;;;;;;;;;5070693;28;20066;-41
2022/08/28 11:11:44;;;;;;;6.47;3.78;;;;;;;;;;5070717;28;20036;-43
2022/08/28 11:14:21;;;;;;;7.93;4.38;;;;;;;;;;5069906;28;20043;-42
2022/08/28 11:16:48;;;;;;;8.45;3.75;;;;;;;;;;5071120;28;20526;-44
2022/08/28 11:19:29;;;;;;;8.00;4.53;;;;;;;;;;5069203;28;20027;-41
2022/08/28 11:21:54;;;;;;;9.32;4.00;;;;;;;;;;5070650;28;20090;-43
2022/08/28 11:24:27;;;;;;;8.90;4.10;;;;;;;;;;5073240;28;20028;-41
2022/08/28 11:27:04;;;;;;;9.15;4.20;;;;;;;;;;5073735;28;20091;-41
2022/08/28 11:29:48;;;;;;;14.20;4.05;;;;;;;;;;5074043;28;20032;-43
2022/08/28 11:32:37;;;;;;;12.32;4.15;;;;;;;;;;5072668;28;20395;-42
2022/08/28 11:35:25;;;;;;;7.10;4.00;;;;;;;;;;5065742;28;20025;-42
2022/08/28 11:37:51;;;;;;;9.77;3.90;;;;;;;;;;5074122;28;20064;-42
2022/08/28 11:40:30;;;;;;;11.23;3.72;;;;;;;;;;5073806;28;20028;-40
2022/08/28 11:43:14;;;;;;;11.20;3.90;;;;;;;;;;5072588;28;20027;-42
2022/08/28 11:45:42;;;;;;;8.25;3.85;;;;;;;;;;5074086;28;20052;-43
2022/08/28 11:48:07;;;;;;;;;;;;;;;;;;5073464;28;20028;-42
2022/08/28 11:50:50;;;;;;;12.70;3.97;;;;;;;;;;5073677;28;19920;-42
2022/08/28 11:53:18;;;;;;;13.85;4.03;;;;;;;;;;5053419;28;20021;-44
2022/08/28 11:55:43;;;;;;;8.50;3.83;;;;;;;;;;5052583;28;20464;-44
2022/08/28 11:58:18;;;;;;;16.80;4.13;;;;;;;;;;5053631;28;20120;-41
2022/08/28 12:00:51;;;;;;;7.15;3.97;;;;;;;;;;5053967;28;20055;-44
2022/08/28 12:03:35;;;;;;;13.55;5.15;;;;;;;;;;5053868;28;20053;-43
2022/08/28 12:06:01;;;;;;;14.57;4.22;;;;;;;;;;5052291;28;20031;-43
2022/08/28 12:08:45;;;;;;;14.95;4.45;;;;;;;;;;5052262;28;20143;-41
2022/08/28 12:11:31;;;;;;;10.10;4.63;;;;;;;;;;5053469;28;20472;-41
2022/08/28 12:13:56;;;;;;;15.50;4.90;;;;;;;;;;5046087;28;20484;-42
2022/08/28 12:16:22;;;;;;;11.27;5.13;;;;;;;;;;5052323;28;20075;-43
2022/08/28 12:18:47;;;;;;;9.13;5.20;;;;;;;;;;5052296;28;20009;-43
2022/08/28 12:21:19;;;;;;;12.83;4.73;;;;;;;;;;5052239;28;20013;-43
2022/08/28 12:23:57;;;;;;;11.25;4.53;;;;;;;;;;5054012;28;20025;-42
2022/08/28 12:26:22;;;;;;;12.38;5.18;;;;;;;;;;5053529;28;20036;-44
2022/08/28 12:28:50;;;;;;;16.73;5.00;;;;;;;;;;5053206;28;20021;-43
2022/08/28 12:31:15;;;;;;;;;;;;;;;;;;5053386;28;20091;-43
2022/08/28 12:33:53;;;;;;;12.53;5.07;;;;;;;;;;5050834;28;20361;-41
2022/08/28 12:36:25;;;;;;;12.15;4.90;;;;;;;;;;5053560;28;20083;-41
2022/08/28 12:38:51;;;;;;;9.55;5.03;;;;;;;;;;5053066;28;20029;-44
2022/08/28 12:41:17;;;;;;;7.75;4.95;;;;;;;;;;5051937;28;20027;-42
2022/08/28 12:43:44;;;;;;;9.93;4.82;;;;;;;;;;5053125;28;20017;-42
2022/08/28 12:46:11;;;;;;;11.65;5.03;;;;;;;;;;5053003;28;20096;-43
2022/08/28 12:48:50;;;;;;;13.05;5.28;;;;;;;;;;5053114;28;20484;-43
2022/08/28 12:51:24;;;;;;;15.63;5.30;;;;;;;;;;5058970;28;20060;-44
2022/08/28 12:53:51;;;;;;;12.70;4.95;;;;;;;;;;5071327;28;20430;-43
2022/08/28 12:56:17;;;;;;;11.05;5.32;;;;;;;;;;5072907;28;20490;-43
2022/08/28 12:58:43;;;;;;;11.30;5.60;;;;;;;;;;5071128;28;20716;-43
2022/08/28 13:01:11;;;;;;;11.85;4.90;;;;;;;;;;5071123;28;20020;-43
2022/08/28 13:03:44;;;;;;;12.40;4.97;;;;;;;;;;5073188;28;20070;-43
2022/08/28 13:06:10;;;;;;;10.90;4.00;;;;;;;;;;5072812;28;20071;-43
2022/08/28 13:08:35;;;;;;;8.15;4.57;;;;;;;;;;5054946;28;20077;-44
2022/08/28 13:11:01;;;;;;;19.02;5.68;;;;;;;;;;5052477;28;20045;-43
2022/08/28 13:13:32;;;;;;;9.32;4.60;;;;;;;;;;5052251;28;20035;-43
2022/08/28 13:16:01;;;;;;;12.90;5.05;;;;;;;;;;5052009;28;20021;-42
2022/08/28 13:18:26;;;;;;;;;;;;;;;;;;5052534;28;20029;-44
2022/08/28 13:20:52;;;;;;;12.25;5.03;;;;;;;;;;5051956;28;19950;-44
2022/08/28 13:23:28;;;;;;;11.45;4.45;;;;;;;;;;5051980;28;20139;-43
2022/08/28 13:26:01;;;;;;;11.70;5.07;;;;;;;;;;5051739;28;20021;-43
2022/08/28 13:28:27;;;;;;;12.00;4.00;;;;;;;;;;5052178;28;20116;-43
2022/08/28 13:30:56;;;;;;;10.73;5.17;;;;;;;;;;5052105;28;20449;-42
2022/08/28 13:33:23;;;;;;;12.98;4.60;;;;;;;;;;5052342;28;20024;-41
2022/08/28 13:35:49;;;;;;;6.88;4.30;;;;;;;;;;5051982;28;20365;-43
2022/08/28 13:38:18;;;;;;;10.30;4.40;;;;;;;;;;5051874;28;20062;-44
2022/08/28 13:40:47;;;;;;;9.43;4.30;;;;;;;;;;5051385;28;20086;-46
2022/08/28 13:43:14;;;;;;;8.48;4.40;;;;;;;;;;5051999;28;20048;-43
2022/08/28 13:45:41;;;;;;;12.85;4.38;;;;;;;;;;5051688;28;20021;-43
2022/08/28 13:48:07;;;;;;;11.70;4.55;;;;;;;;;;5051530;28;20025;-44
2022/08/28 13:50:35;;;;;;;15.20;4.97;;;;;;;;;;5050973;28;20138;-42
2022/08/28 13:53:00;;;;;;;7.45;4.50;;;;;;;;;;5031357;28;20018;-42
2022/08/28 13:55:25;;;;;;;9.27;4.50;;;;;;;;;;5031823;28;20385;-44
2022/08/28 13:57:50;;;;;;;10.07;4.53;;;;;;;;;;5014135;28;20018;-43
2022/08/28 14:00:16;;;;;;;7.50;3.90;;;;;;;;;;5031626;28;20235;-43
2022/08/28 14:05:25;;;;;;;7.95;4.70;;;;;;;;;;5031234;28;20773;-43
2022/08/28 14:07:51;;;;;;;15.30;4.70;;;;;;;;;;5031636;28;20077;-43
2022/08/28 14:10:17;;;;;;;10.38;4.88;;;;;;;;;;5031626;28;20028;-44
2022/08/28 14:12:45;;;;;;;11.27;4.60;;;;;;;;;;5013724;28;20021;-43
2022/08/28 14:15:11;;;;;;;10.88;4.25;;;;;;;;;;5031275;28;20025;-44
2022/08/28 14:17:36;;;;;;;11.10;4.45;;;;;;;;;;5013625;28;20029;-43
2022/08/28 14:20:01;;;;;;;8.27;3.90;;;;;;;;;;5030812;28;20067;-42
2022/08/28 14:22:27;;;;;;;9.63;3.75;;;;;;;;;;5030982;28;20029;-43
2022/08/28 14:24:52;;;;;;;15.40;4.45;;;;;;;;;;5030910;28;20501;-43
2022/08/28 14:27:18;;;;;;;11.23;4.07;;;;;;;;;;5031381;28;20113;-45
2022/08/28 14:29:43;;;;;;;14.35;4.00;;;;;;;;;;5013371;28;20049;-44
2022/08/28 14:32:08;;;;;;;6.57;3.90;;;;;;;;;;5031431;28;20056;-43
2022/08/28 14:34:34;;;;;;;9.98;3.95;;;;;;;;;;5031094;28;20052;-43
2022/08/28 14:37:00;;;;;;;7.10;4.40;;;;;;;;;;5030975;28;20021;-42
2022/08/28 14:39:26;;;;;;;8.23;4.00;;;;;;;;;;5031085;28;20128;-43
2022/08/28 14:41:52;;;;;;;11.30;4.55;;;;;;;;;;5030989;28;20424;-42
2022/08/28 14:44:18;;;;;;;8.32;4.10;;;;;;;;;;5031335;28;20108;-44
2022/08/28 14:46:44;;;;;;;8.10;3.70;;;;;;;;;;5031053;28;20048;-44
2022/08/28 14:49:11;;;;;;;7.72;4.13;;;;;;;;;;5031100;28;20044;-43
2022/08/28 14:51:37;;;;;;;8.10;3.80;;;;;;;;;;5039252;28;20083;-43
2022/08/28 14:54:03;;;;;;;11.73;4.60;;;;;;;;;;5051015;28;20081;-43